Time;durP1;ratioP1;P1;durP2;ratioP2;P2;SDS_P1;SDS_P2;PMS_P1;PMS_P2;Temp;Humidity;BMP_temperature;BMP_pressure;BME280_temperature;BME280_humidity;BME280_pressure;Samples;Min_cycle;Max_cycle;Signal;HPM_P1;HPM_P2
2022/10/14 00:01:03;;;;;;;2.47;1.90;;;11.50;99.90;;;;;;5008059;28;20563;-51
2022/10/14 00:03:30;;;;;;;2.00;1.80;;;11.70;99.90;;;;;;5007831;28;20441;-51
2022/10/14 00:05:57;;;;;;;2.90;1.70;;;11.50;99.90;;;;;;5008092;28;20880;-51
2022/10/14 00:08:24;;;;;;;3.57;2.53;;;11.30;99.90;;;;;;5008261;28;20540;-51
2022/10/14 00:10:51;;;;;;;3.87;2.37;;;11.00;99.90;;;;;;5008115;28;20463;-51
2022/10/14 00:13:19;;;;;;;2.77;2.17;;;10.90;99.90;;;;;;5007852;28;20490;-51
2022/10/14 00:15:46;;;;;;;3.10;2.30;;;10.90;99.90;;;;;;5007911;28;20471;-51
2022/10/14 00:18:13;;;;;;;6.10;2.10;;;11.00;99.90;;;;;;5008045;28;20526;-52
2022/10/14 00:20:40;;;;;;;3.90;2.30;;;11.30;99.90;;;;;;5007803;28;20470;-52
2022/10/14 00:23:07;;;;;;;3.27;2.97;;;11.60;99.90;;;;;;5007676;28;21029;-51
2022/10/14 00:25:38;;;;;;;2.60;1.90;;;11.90;99.90;;;;;;5007741;28;20542;-51
2022/10/14 00:28:05;;;;;;;4.13;2.73;;;12.00;99.90;;;;;;5007829;28;20444;-52
2022/10/14 00:30:34;;;;;;;3.63;2.70;;;12.10;99.90;;;;;;5007621;28;20465;-51
2022/10/14 00:33:01;;;;;;;3.93;2.13;;;12.00;99.90;;;;;;5007820;28;20585;-52
2022/10/14 00:35:27;;;;;;;2.87;2.60;;;12.00;99.90;;;;;;5007514;28;20439;-51
2022/10/14 00:37:54;;;;;;;2.33;2.03;;;12.20;99.90;;;;;;5010503;28;20451;-52
2022/10/14 00:40:21;;;;;;;3.40;2.20;;;12.20;99.90;;;;;;5011089;28;20851;-51
2022/10/14 00:42:48;;;;;;;3.97;2.60;;;12.30;99.90;;;;;;5011534;28;20527;-51
2022/10/14 00:45:20;;;;;;;3.53;2.20;;;12.40;99.90;;;;;;5011073;28;20455;-52
2022/10/14 00:47:51;;;;;;;2.27;2.07;;;12.50;99.90;;;;;;5010973;28;20995;-52
2022/10/14 00:50:19;;;;;;;4.03;2.60;;;12.30;99.90;;;;;;5010799;28;20465;-51
2022/10/14 00:52:47;;;;;;;3.67;2.33;;;12.40;99.90;;;;;;5010896;28;20502;-51
2022/10/14 00:55:16;;;;;;;3.67;3.27;;;12.50;99.90;;;;;;5010580;28;20446;-52
2022/10/14 00:57:44;;;;;;;3.03;2.73;;;12.60;99.90;;;;;;5011005;28;20533;-51
2022/10/14 01:00:13;;;;;;;2.97;2.23;;;12.60;99.90;;;;;;5010551;28;20505;-51
2022/10/14 01:02:40;;;;;;;2.57;2.33;;;12.70;99.90;;;;;;5010936;28;20537;-52
2022/10/14 01:05:11;;;;;;;2.47;1.90;;;12.70;99.90;;;;;;5010892;28;20443;-51
2022/10/14 01:07:47;;;;;;;3.53;2.27;;;12.60;99.90;;;;;;5010898;28;20453;-53
2022/10/14 01:10:19;;;;;;;2.50;2.30;;;12.50;99.90;;;;;;5010862;28;20470;-51
2022/10/14 01:13:05;;;;;;;4.53;2.30;;;12.60;99.90;;;;;;5010743;28;21023;-51
2022/10/14 01:15:38;;;;;;;3.03;2.57;;;12.70;99.90;;;;;;5010463;28;20449;-51
2022/10/14 01:18:18;;;;;;;2.40;2.10;;;12.30;99.90;;;;;;5010447;28;20536;-51
2022/10/14 01:21:02;;;;;;;3.37;2.40;;;11.80;99.90;;;;;;5010454;28;20470;-51
2022/10/14 01:24:05;;;;;;;6.13;3.40;;;11.70;99.90;;;;;;5010412;28;20445;-51
2022/10/14 01:26:51;;;;;;;4.97;2.20;;;11.50;99.90;;;;;;5041615;28;20448;-51
2022/10/14 01:29:32;;;;;;;3.53;2.67;;;11.30;99.90;;;;;;5010378;28;21061;-51
2022/10/14 01:32:06;;;;;;;3.13;2.83;;;11.20;99.90;;;;;;5010378;28;20531;-51
2022/10/14 01:34:38;;;;;;;3.17;2.87;;;11.20;99.90;;;;;;5010079;28;20936;-52
2022/10/14 01:37:11;;;;;;;2.40;2.13;;;11.60;99.90;;;;;;5010236;28;20535;-51
2022/10/14 01:39:44;;;;;;;4.63;2.20;;;11.90;99.90;;;;;;5010106;28;20554;-52
2022/10/14 01:42:18;;;;;;;3.37;2.53;;;12.10;99.90;;;;;;5010313;28;20453;-51
2022/10/14 01:44:48;;;;;;;4.80;2.50;;;12.20;99.90;;;;;;5010037;28;20888;-51
2022/10/14 01:47:19;;;;;;;3.00;2.70;;;12.30;99.90;;;;;;5010037;28;20507;-51
2022/10/14 01:49:52;;;;;;;2.93;2.70;;;12.30;99.90;;;;;;5010155;28;20567;-52
2022/10/14 01:52:21;;;;;;;2.27;2.07;;;12.30;99.90;;;;;;5010297;28;20453;-52
2022/10/14 01:54:52;;;;;;;2.83;2.47;;;12.10;99.90;;;;;;5009925;28;20487;-51
2022/10/14 01:57:23;;;;;;;2.53;2.33;;;12.10;99.90;;;;;;5009764;28;20539;-53
2022/10/14 01:59:52;;;;;;;2.67;2.47;;;12.20;99.90;;;;;;5010767;28;20473;-52
2022/10/14 02:02:24;;;;;;;2.30;1.97;;;12.30;99.90;;;;;;5010133;28;20549;-51
2022/10/14 02:04:51;;;;;;;2.50;2.10;;;12.40;99.90;;;;;;5009821;28;20443;-51
2022/10/14 02:07:22;;;;;;;5.10;2.73;;;12.40;99.90;;;;;;5009852;28;20967;-52
2022/10/14 02:09:56;;;;;;;2.40;2.03;;;12.50;99.90;;;;;;5009459;28;20543;-51
2022/10/14 02:12:33;;;;;;;4.40;2.30;;;12.50;99.90;;;;;;5009981;28;20451;-51
2022/10/14 02:15:09;;;;;;;2.37;2.17;;;12.60;99.90;;;;;;5009810;28;20527;-50
2022/10/14 02:17:48;;;;;;;3.30;2.50;;;12.60;99.90;;;;;;5009700;28;20449;-51
2022/10/14 02:20:23;;;;;;;2.63;1.80;;;12.60;99.90;;;;;;5009068;28;20912;-51
2022/10/14 02:22:55;;;;;;;2.43;2.17;;;12.60;99.90;;;;;;5009625;28;20939;-51
2022/10/14 02:25:27;;;;;;;5.87;2.30;;;12.50;99.90;;;;;;5009629;28;20525;-51
2022/10/14 02:27:54;;;;;;;2.40;2.20;;;12.40;99.90;;;;;;5009548;28;21026;-51
2022/10/14 02:30:22;;;;;;;2.43;2.20;;;12.10;99.90;;;;;;5009131;28;20551;-52
2022/10/14 02:32:52;;;;;;;4.73;2.30;;;11.70;99.90;;;;;;5009382;28;20544;-51
2022/10/14 02:35:23;;;;;;;3.10;2.67;;;11.60;99.90;;;;;;5009814;28;20535;-51
2022/10/14 02:37:51;;;;;;;6.23;3.30;;;11.60;99.90;;;;;;5009246;28;20454;-51
2022/10/14 02:40:23;;;;;;;6.63;2.40;;;11.70;99.90;;;;;;5009287;28;20468;-51
2022/10/14 02:42:50;;;;;;;2.77;2.20;;;11.90;99.90;;;;;;5009102;28;20952;-52
2022/10/14 02:45:18;;;;;;;3.50;2.53;;;12.10;99.90;;;;;;5009223;28;20528;-51
2022/10/14 02:47:45;;;;;;;5.00;2.27;;;12.20;99.90;;;;;;5009044;28;20916;-51
2022/10/14 02:50:13;;;;;;;4.90;2.20;;;12.20;99.90;;;;;;5009172;28;20502;-51
2022/10/14 02:52:40;;;;;;;4.30;2.23;;;12.30;99.90;;;;;;5009196;28;20879;-51
2022/10/14 02:55:07;;;;;;;4.70;2.20;;;12.40;99.90;;;;;;5008858;28;20481;-52
2022/10/14 02:57:34;;;;;;;2.90;1.87;;;12.40;99.90;;;;;;5008791;28;20541;-51
2022/10/14 03:00:01;;;;;;;2.07;1.80;;;12.30;99.90;;;;;;5008215;28;21043;-51
2022/10/14 03:02:28;;;;;;;2.20;1.93;;;12.10;99.90;;;;;;5009085;28;20448;-52
2022/10/14 03:04:55;;;;;;;3.90;3.03;;;12.10;99.90;;;;;;5008718;28;20985;-51
2022/10/14 03:07:24;;;;;;;2.10;1.90;;;12.20;99.90;;;;;;5008816;28;20466;-51
2022/10/14 03:09:50;;;;;;;2.43;2.10;;;12.30;99.90;;;;;;5008680;28;20549;-52
2022/10/14 03:12:17;;;;;;;3.47;2.50;;;12.40;99.90;;;;;;5008922;28;20541;-51
2022/10/14 03:14:44;;;;;;;3.10;2.03;;;12.40;99.90;;;;;;5008648;28;20487;-52
2022/10/14 03:17:11;;;;;;;3.60;2.30;;;12.50;99.90;;;;;;5008870;28;20538;-51
2022/10/14 03:19:38;;;;;;;4.27;2.10;;;12.50;99.90;;;;;;5008980;28;20460;-51
2022/10/14 03:22:05;;;;;;;2.40;2.10;;;12.50;99.90;;;;;;5008007;28;20525;-52
2022/10/14 03:24:33;;;;;;;3.40;2.50;;;12.40;99.90;;;;;;5008543;28;20445;-51
2022/10/14 03:27:00;;;;;;;2.50;2.13;;;12.00;99.90;;;;;;5008885;28;20536;-51
2022/10/14 03:29:27;;;;;;;4.80;2.90;;;11.90;99.90;;;;;;5008524;28;20467;-52
2022/10/14 03:31:54;;;;;;;3.33;3.03;;;12.10;99.90;;;;;;5008688;28;20478;-51
2022/10/14 03:34:20;;;;;;;5.87;2.87;;;12.10;99.90;;;;;;5008166;28;20477;-51
2022/10/14 03:36:47;;;;;;;3.70;2.73;;;11.90;99.90;;;;;;5008504;28;20896;-52
2022/10/14 03:39:14;;;;;;;3.67;2.60;;;11.90;99.90;;;;;;5008762;28;20497;-51
2022/10/14 03:41:42;;;;;;;4.23;3.83;;;12.00;99.90;;;;;;5008321;28;20448;-51
2022/10/14 03:44:10;;;;;;;4.47;4.03;;;12.00;99.90;;;;;;5008070;28;20471;-51
2022/10/14 03:46:37;;;;;;;3.00;2.70;;;11.90;99.90;;;;;;5008495;28;21051;-51
2022/10/14 03:49:04;;;;;;;2.40;2.20;;;11.90;99.90;;;;;;5008531;28;21000;-51
2022/10/14 03:51:30;;;;;;;4.93;2.97;;;12.10;99.90;;;;;;5008382;28;20914;-52
2022/10/14 03:53:57;;;;;;;2.60;2.40;;;12.20;99.90;;;;;;5007920;28;20486;-51
2022/10/14 03:56:24;;;;;;;3.93;2.70;;;12.30;99.90;;;;;;5008617;28;20462;-50
2022/10/14 03:58:52;;;;;;;5.33;2.73;;;12.40;99.90;;;;;;5008242;28;20447;-52
2022/10/14 04:01:19;;;;;;;3.77;2.50;;;12.60;99.90;;;;;;5008315;28;20458;-52
2022/10/14 04:03:46;;;;;;;2.90;2.60;;;12.30;99.90;;;;;;5007856;28;20492;-51
2022/10/14 04:06:13;;;;;;;3.80;3.10;;;12.40;99.90;;;;;;5008388;28;20533;-52
2022/10/14 04:08:41;;;;;;;4.03;3.07;;;12.60;99.90;;;;;;5008363;28;20448;-51
2022/10/14 04:11:08;;;;;;;4.30;3.60;;;12.30;99.90;;;;;;5008396;28;20916;-52
2022/10/14 04:13:35;;;;;;;4.07;3.07;;;12.30;99.90;;;;;;5011426;28;20486;-52
2022/10/14 04:16:05;;;;;;;3.70;3.03;;;12.10;99.90;;;;;;5011443;28;20467;-52
2022/10/14 04:18:32;;;;;;;3.17;2.87;;;12.00;99.90;;;;;;5011332;28;20540;-52
2022/10/14 04:21:00;;;;;;;3.70;3.03;;;12.20;99.90;;;;;;5011155;28;20844;-52
2022/10/14 04:23:27;;;;;;;3.83;2.17;;;12.40;99.90;;;;;;5011155;28;20529;-52
2022/10/14 04:25:54;;;;;;;3.30;2.90;;;12.50;99.90;;;;;;5011323;28;20759;-51
2022/10/14 04:28:21;;;;;;;4.07;3.43;;;12.60;99.90;;;;;;5011206;28;20479;-52
2022/10/14 04:30:48;;;;;;;4.93;4.00;;;12.40;99.90;;;;;;5011292;28;20477;-52
2022/10/14 04:33:16;;;;;;;4.90;3.97;;;12.20;99.90;;;;;;5011042;28;20535;-53
2022/10/14 04:35:43;;;;;;;4.27;3.87;;;12.10;99.90;;;;;;5011279;28;20538;-52
2022/10/14 04:38:10;;;;;;;4.20;3.80;;;12.10;99.90;;;;;;5011492;28;20894;-52
2022/10/14 04:40:37;;;;;;;9.47;4.00;;;12.00;99.90;;;;;;5010927;28;20909;-52
2022/10/14 04:43:04;;;;;;;3.93;3.60;;;12.00;99.90;;;;;;5010901;28;20449;-52
2022/10/14 04:45:31;;;;;;;7.10;5.03;;;12.20;99.90;;;;;;5011358;28;20533;-52
2022/10/14 04:47:58;;;;;;;6.47;5.20;;;12.40;99.90;;;;;;5011663;28;20490;-52
2022/10/14 04:50:27;;;;;;;5.67;4.90;;;12.40;99.90;;;;;;5012998;28;20994;-52
2022/10/14 04:52:53;;;;;;;4.30;3.90;;;12.50;99.90;;;;;;5011826;28;20472;-54
2022/10/14 04:55:20;;;;;;;4.20;3.60;;;12.40;99.90;;;;;;5010416;28;20849;-52
2022/10/14 04:57:47;;;;;;;3.87;3.57;;;12.40;99.90;;;;;;5010596;28;21034;-52
2022/10/14 05:00:15;;;;;;;3.57;3.27;;;12.60;99.90;;;;;;5010814;28;20471;-52
2022/10/14 05:02:42;;;;;;;3.30;3.00;;;12.60;99.90;;;;;;5010799;28;20531;-52
2022/10/14 05:05:09;;;;;;;4.10;3.70;;;12.50;99.90;;;;;;5010138;28;20536;-52
2022/10/14 05:07:38;;;;;;;4.00;3.50;;;12.50;99.90;;;;;;5010618;28;20534;-52
2022/10/14 05:10:05;;;;;;;5.70;3.63;;;12.30;99.90;;;;;;5010638;28;20503;-52
2022/10/14 05:12:33;;;;;;;4.67;3.93;;;11.70;99.90;;;;;;5010711;28;20483;-52
2022/10/14 05:15:00;;;;;;;4.63;3.70;;;11.60;99.90;;;;;;5010344;28;20578;-52
2022/10/14 05:17:27;;;;;;;34.80;21.10;;;11.90;99.90;;;;;;5010822;28;20881;-52
2022/10/14 05:19:54;;;;;;;31.30;21.43;;;12.10;99.90;;;;;;5010350;28;20468;-53
2022/10/14 05:22:21;;;;;;;14.47;9.70;;;12.20;99.90;;;;;;5010427;28;20446;-52
2022/10/14 05:24:49;;;;;;;8.53;5.80;;;12.30;99.90;;;;;;5010248;28;20476;-52
2022/10/14 05:27:16;;;;;;;5.47;4.93;;;12.30;99.90;;;;;;5010477;28;20533;-51
2022/10/14 05:29:43;;;;;;;7.23;4.33;;;12.30;99.90;;;;;;5010598;28;20505;-52
2022/10/14 05:32:10;;;;;;;6.83;4.27;;;12.30;99.90;;;;;;5010411;28;20526;-52
2022/10/14 05:34:37;;;;;;;7.93;5.27;;;12.40;99.90;;;;;;5010510;28;20492;-54
2022/10/14 05:37:04;;;;;;;6.90;4.20;;;12.40;99.90;;;;;;5010380;28;20535;-52
2022/10/14 05:39:30;;;;;;;5.57;5.00;;;12.40;99.90;;;;;;5010185;28;20470;-51
2022/10/14 05:41:59;;;;;;;8.20;4.63;;;12.40;99.90;;;;;;5010478;28;20529;-54
2022/10/14 05:44:26;;;;;;;5.70;5.17;;;12.50;99.90;;;;;;5009973;28;20444;-52
2022/10/14 05:46:52;;;;;;;6.93;5.37;;;12.40;99.90;;;;;;5009875;28;20974;-52
2022/10/14 05:49:19;;;;;;;5.10;4.30;;;12.20;99.90;;;;;;5010002;28;20500;-52
2022/10/14 05:51:46;;;;;;;5.57;4.50;;;12.20;99.90;;;;;;5010090;28;20493;-52
2022/10/14 05:54:13;;;;;;;8.00;5.10;;;12.30;99.90;;;;;;5009535;28;20483;-52
2022/10/14 05:56:40;;;;;;;4.77;3.80;;;12.30;99.90;;;;;;5010410;28;20536;-52
2022/10/14 05:59:11;;;;;;;5.10;4.27;;;12.30;99.90;;;;;;5009765;28;20447;-51
2022/10/14 06:01:37;;;;;;;6.00;5.30;;;12.30;99.90;;;;;;5009877;28;20455;-52
2022/10/14 06:04:04;;;;;;;3.77;3.37;;;12.30;99.90;;;;;;5009873;28;20535;-51
2022/10/14 06:06:31;;;;;;;4.93;3.60;;;11.90;99.90;;;;;;5009799;28;20968;-52
2022/10/14 06:08:58;;;;;;;3.67;3.30;;;11.70;99.90;;;;;;5009717;28;20890;-52
2022/10/14 06:11:25;;;;;;;5.20;4.17;;;11.90;99.90;;;;;;5009794;28;20792;-52
2022/10/14 06:13:53;;;;;;;5.70;5.00;;;12.00;99.90;;;;;;5009309;28;20533;-52
2022/10/14 06:16:21;;;;;;;4.70;4.30;;;12.10;99.90;;;;;;5009692;28;20449;-53
2022/10/14 06:18:48;;;;;;;5.60;4.83;;;12.10;99.90;;;;;;5009273;28;20547;-52
2022/10/14 06:21:14;;;;;;;4.80;3.40;;;11.70;99.90;;;;;;5009256;28;20464;-52
2022/10/14 06:23:41;;;;;;;3.40;2.80;;;11.70;99.90;;;;;;5009063;28;21020;-51
2022/10/14 06:26:08;;;;;;;6.83;3.30;;;11.90;99.90;;;;;;5009478;28;21003;-52
2022/10/14 06:28:36;;;;;;;3.40;3.10;;;12.10;99.90;;;;;;5009532;28;20444;-52
2022/10/14 06:31:03;;;;;;;4.00;2.90;;;12.10;99.90;;;;;;5009528;28;20837;-52
2022/10/14 06:33:31;;;;;;;6.10;4.40;;;12.10;99.90;;;;;;5008681;28;20542;-52
2022/10/14 06:35:59;;;;;;;5.30;3.80;;;11.90;99.90;;;;;;5008650;28;20482;-52
2022/10/14 06:38:25;;;;;;;5.93;3.67;;;12.00;99.90;;;;;;5009417;28;20533;-52
2022/10/14 06:40:53;;;;;;;7.20;5.17;;;12.10;99.90;;;;;;5009174;28;20908;-52
2022/10/14 06:43:21;;;;;;;7.13;6.43;;;12.20;99.90;;;;;;5008882;28;20888;-52
2022/10/14 06:45:48;;;;;;;7.83;5.90;;;12.40;99.90;;;;;;5009505;28;20528;-52
2022/10/14 06:48:15;;;;;;;8.37;6.80;;;12.50;99.90;;;;;;5009255;28;20451;-53
2022/10/14 06:50:44;;;;;;;7.63;6.83;;;12.60;99.90;;;;;;5009129;28;20460;-52
2022/10/14 06:53:10;;;;;;;7.87;6.40;;;12.60;99.90;;;;;;5008772;28;20894;-52
2022/10/14 06:55:37;;;;;;;8.80;5.80;;;12.60;99.90;;;;;;5008966;28;21068;-52
2022/10/14 06:58:04;;;;;;;11.10;8.13;;;12.70;99.90;;;;;;5008987;28;20476;-52
2022/10/14 07:00:31;;;;;;;7.63;6.37;;;12.80;99.90;;;;;;5008935;28;20527;-51
2022/10/14 07:02:59;;;;;;;7.17;5.60;;;12.60;99.90;;;;;;5008736;28;20532;-51
2022/10/14 07:05:26;;;;;;;8.40;6.00;;;12.30;99.90;;;;;;5009240;28;20445;-51
2022/10/14 07:07:54;;;;;;;6.17;5.50;;;12.30;99.90;;;;;;5009124;28;20825;-52
2022/10/14 07:10:21;;;;;;;8.93;5.90;;;12.50;99.90;;;;;;5009071;28;20470;-53
2022/10/14 07:12:48;;;;;;;7.10;6.13;;;12.70;99.90;;;;;;5009631;28;20488;-51
2022/10/14 07:15:15;;;;;;;12.83;6.30;;;12.80;99.90;;;;;;5009025;28;20527;-51
2022/10/14 07:17:42;;;;;;;8.73;6.30;;;12.90;99.90;;;;;;5009386;28;20467;-50
2022/10/14 07:20:11;;;;;;;6.93;4.70;;;12.90;99.90;;;;;;5008387;28;20873;-51
2022/10/14 07:22:37;;;;;;;7.10;4.23;;;12.70;99.90;;;;;;5009220;28;20446;-52
2022/10/14 07:25:07;;;;;;;4.43;4.00;;;12.70;99.90;;;;;;5008629;28;20545;-52
2022/10/14 07:27:34;;;;;;;4.03;3.63;;;12.80;99.90;;;;;;5009066;28;20837;-53
2022/10/14 07:30:01;;;;;;;3.83;3.53;;;12.80;99.90;;;;;;5008883;28;20559;-52
2022/10/14 07:32:28;;;;;;;4.20;3.80;;;12.50;99.90;;;;;;5008800;28;20445;-52
2022/10/14 07:34:55;;;;;;;3.57;3.27;;;12.50;99.90;;;;;;5008814;28;20577;-53
2022/10/14 07:37:22;;;;;;;4.73;4.30;;;12.60;99.90;;;;;;5009067;28;20456;-52
2022/10/14 07:39:49;;;;;;;6.63;4.90;;;12.60;99.90;;;;;;5008918;28;20505;-51
2022/10/14 07:42:17;;;;;;;8.07;5.10;;;12.70;99.90;;;;;;5008595;28;20444;-51
2022/10/14 07:44:44;;;;;;;9.00;5.33;;;12.70;99.90;;;;;;5008225;28;20963;-51
2022/10/14 07:47:11;;;;;;;6.10;5.30;;;12.70;99.90;;;;;;5011651;28;20965;-52
2022/10/14 07:49:38;;;;;;;7.03;6.00;;;12.80;99.90;;;;;;5011824;28;20501;-51
2022/10/14 07:52:05;;;;;;;7.50;6.70;;;12.80;99.90;;;;;;5012032;28;20454;-51
2022/10/14 07:54:32;;;;;;;7.00;5.83;;;12.90;99.90;;;;;;5011824;28;20881;-51
2022/10/14 07:56:59;;;;;;;5.20;4.07;;;13.00;99.90;;;;;;5011597;28;20520;-51
2022/10/14 07:59:27;;;;;;;6.67;4.27;;;13.00;99.90;;;;;;5012535;28;20476;-51
2022/10/14 08:01:55;;;;;;;6.23;4.47;;;13.00;99.90;;;;;;5012085;28;20459;-52
2022/10/14 08:04:23;;;;;;;6.10;4.83;;;13.00;99.90;;;;;;5011871;28;20817;-52
2022/10/14 08:06:50;;;;;;;15.57;6.07;;;13.00;99.90;;;;;;5011559;28;20445;-52
2022/10/14 08:09:18;;;;;;;14.77;6.23;;;13.00;99.90;;;;;;5011522;28;20464;-51
2022/10/14 08:11:46;;;;;;;8.53;6.13;;;13.10;99.90;;;;;;5011481;28;20536;-52
2022/10/14 08:14:13;;;;;;;7.67;4.53;;;13.10;99.90;;;;;;5011194;28;20461;-52
2022/10/14 08:16:42;;;;;;;5.00;3.90;;;13.10;99.90;;;;;;5011688;28;20507;-52
2022/10/14 08:19:11;;;;;;;9.37;4.93;;;13.20;99.90;;;;;;5011706;28;20461;-52
2022/10/14 08:21:38;;;;;;;6.63;4.53;;;13.20;99.90;;;;;;5011339;28;20488;-52
2022/10/14 08:24:05;;;;;;;7.60;3.63;;;13.20;99.90;;;;;;5011125;28;20447;-52
2022/10/14 08:26:34;;;;;;;7.10;4.23;;;13.20;99.90;;;;;;5012327;28;20562;-51
2022/10/14 08:29:03;;;;;;;3.00;1.87;;;13.20;99.90;;;;;;5011375;28;20975;-51
2022/10/14 08:31:31;;;;;;;2.63;1.40;;;12.90;99.90;;;;;;5011315;28;20452;-51
2022/10/14 08:33:59;;;;;;;2.23;1.60;;;12.40;99.90;;;;;;5011789;28;20460;-52
2022/10/14 08:36:26;;;;;;;2.20;1.40;;;12.30;99.90;;;;;;5013517;28;20504;-52
2022/10/14 08:38:54;;;;;;;2.67;1.53;;;12.50;99.90;;;;;;5012581;28;20445;-51
2022/10/14 08:41:35;;;;;;;2.73;1.80;;;12.80;99.90;;;;;;5011466;28;20969;-52
2022/10/14 08:44:13;;;;;;;2.90;2.27;;;13.00;99.90;;;;;;5011287;28;20449;-52
2022/10/14 08:46:43;;;;;;;2.80;2.20;;;13.20;99.90;;;;;;5012801;28;20433;-51
2022/10/14 08:49:17;;;;;;;3.57;1.90;;;13.30;99.90;;;;;;5011304;28;20527;-51
2022/10/14 08:51:46;;;;;;;2.13;1.73;;;13.30;99.90;;;;;;5011213;28;20445;-51
2022/10/14 08:54:21;;;;;;;2.83;1.63;;;13.30;99.90;;;;;;5011396;28;20521;-52
2022/10/14 08:56:48;;;;;;;1.57;1.33;;;13.10;99.90;;;;;;5011685;28;21077;-51
2022/10/14 08:59:19;;;;;;;3.00;1.63;;;13.20;99.90;;;;;;5010842;28;20489;-51
2022/10/14 09:01:51;;;;;;;2.53;1.77;;;13.20;99.90;;;;;;5010976;28;20530;-51
2022/10/14 09:04:20;;;;;;;3.17;1.80;;;13.30;99.90;;;;;;5010829;28;20442;-51
2022/10/14 09:06:48;;;;;;;1.73;1.50;;;13.40;99.90;;;;;;5010735;28;20800;-51
2022/10/14 09:09:22;;;;;;;1.90;1.70;;;13.50;99.90;;;;;;5010776;28;20556;-51
2022/10/14 09:11:54;;;;;;;2.77;2.10;;;13.50;99.90;;;;;;5010692;28;20536;-51
2022/10/14 09:14:26;;;;;;;2.80;1.60;;;13.40;99.90;;;;;;5010326;28;20882;-51
2022/10/14 09:16:58;;;;;;;2.67;2.07;;;13.60;99.90;;;;;;5010714;28;20475;-51
2022/10/14 09:19:31;;;;;;;2.47;1.50;;;13.80;99.90;;;;;;5010343;28;20473;-50
2022/10/14 09:22:00;;;;;;;4.53;2.30;;;13.90;99.90;;;;;;5010541;28;20446;-51
2022/10/14 09:24:29;;;;;;;4.00;1.83;;;14.00;99.90;;;;;;5010186;28;20542;-51
2022/10/14 09:27:00;;;;;;;2.03;1.80;;;14.00;99.90;;;;;;5010444;28;20571;-51
2022/10/14 09:29:29;;;;;;;2.50;2.20;;;14.10;99.90;;;;;;5010753;28;20472;-51
2022/10/14 09:31:58;;;;;;;5.10;3.00;;;14.10;99.90;;;;;;5010225;28;20453;-51
2022/10/14 09:34:31;;;;;;;3.80;3.40;;;14.20;99.90;;;;;;5009910;28;20448;-50
2022/10/14 09:37:07;;;;;;;2.90;2.30;;;14.30;99.90;;;;;;5010792;28;20517;-50
2022/10/14 09:39:39;;;;;;;3.50;2.13;;;14.30;99.90;;;;;;5010415;28;20470;-51
2022/10/14 09:42:14;;;;;;;6.33;2.67;;;14.30;99.90;;;;;;5010138;28;20454;-51
2022/10/14 09:44:41;;;;;;;2.53;2.33;;;14.40;99.90;;;;;;5010069;28;20548;-51
2022/10/14 09:47:12;;;;;;;3.20;2.63;;;14.40;99.90;;;;;;5010061;28;20443;-50
2022/10/14 09:49:44;;;;;;;5.07;2.43;;;14.50;99.90;;;;;;5010177;28;20691;-51
2022/10/14 09:52:22;;;;;;;3.33;3.03;;;14.40;99.90;;;;;;5010534;28;20454;-51
2022/10/14 09:54:54;;;;;;;3.43;2.80;;;14.60;99.90;;;;;;5009967;28;20458;-51
2022/10/14 09:57:22;;;;;;;3.77;2.80;;;14.70;99.90;;;;;;5009872;28;20482;-51
2022/10/14 09:59:53;;;;;;;4.07;2.73;;;14.60;99.90;;;;;;5009805;28;20576;-51
2022/10/14 10:02:23;;;;;;;3.73;2.77;;;14.40;99.90;;;;;;5009684;28;20937;-51
2022/10/14 10:04:53;;;;;;;2.50;2.30;;;14.40;99.90;;;;;;5009748;28;20447;-51
2022/10/14 10:07:29;;;;;;;2.90;2.53;;;14.60;99.90;;;;;;5009978;28;20444;-50
2022/10/14 10:09:57;;;;;;;3.17;2.87;;;14.60;99.90;;;;;;5009508;28;20542;-51
2022/10/14 10:12:28;;;;;;;3.13;2.83;;;14.70;99.90;;;;;;5010088;28;20522;-51
2022/10/14 10:15:02;;;;;;;5.63;2.60;;;14.70;99.90;;;;;;5009807;28;20979;-51
2022/10/14 10:17:31;;;;;;;2.60;2.40;;;14.50;99.90;;;;;;5009463;28;20432;-51
2022/10/14 10:20:19;;;;;;;3.73;2.40;;;14.60;99.90;;;;;;5009171;28;20463;-51
2022/10/14 10:22:46;;;;;;;3.67;2.70;;;14.40;99.90;;;;;;5009683;28;20980;-51
2022/10/14 10:25:25;;;;;;;4.00;2.37;;;14.60;99.90;;;;;;5009430;28;20447;-51
2022/10/14 10:27:53;;;;;;;4.67;3.00;;;14.70;99.90;;;;;;5009604;28;20439;-51
2022/10/14 10:30:24;;;;;;;3.13;2.83;;;14.90;99.90;;;;;;5009335;28;20467;-51
2022/10/14 10:33:14;;;;;;;3.30;2.60;;;14.90;99.90;;;;;;5009336;28;20950;-51
2022/10/14 10:36:01;;;;;;;3.13;2.83;;;14.70;99.90;;;;;;5009367;28;20481;-51
2022/10/14 10:38:33;;;;;;;3.20;2.50;;;14.60;99.90;;;;;;5009260;28;20452;-51
2022/10/14 10:41:11;;;;;;;2.30;1.93;;;14.60;99.90;;;;;;5009159;28;20973;-52
2022/10/14 10:44:00;;;;;;;3.00;2.33;;;14.70;99.90;;;;;;5008958;28;20535;-51
2022/10/14 10:46:43;;;;;;;3.17;2.20;;;14.80;99.90;;;;;;5011337;28;20827;-51
2022/10/14 10:49:21;;;;;;;3.90;2.60;;;14.90;99.90;;;;;;5009294;28;20518;-51
2022/10/14 10:51:55;;;;;;;3.40;3.00;;;14.90;99.90;;;;;;5009391;28;20474;-51
2022/10/14 10:54:35;;;;;;;3.30;2.60;;;15.00;99.90;;;;;;5009064;28;20469;-51
2022/10/14 10:57:10;;;;;;;3.00;2.47;;;15.10;99.90;;;;;;5008980;28;20488;-51
2022/10/14 10:59:50;;;;;;;3.90;3.00;;;15.10;99.90;;;;;;5008626;28;20486;-51
2022/10/14 11:02:53;;;;;;;4.73;3.20;;;15.20;99.90;;;;;;5009303;28;20448;-51
2022/10/14 11:05:29;;;;;;;2.57;2.37;;;15.20;99.90;;;;;;5008867;28;20443;-51
2022/10/14 11:13:51;;;;;;;2.90;2.63;;;15.20;99.90;;;;;;5009172;28;20484;-51
2022/10/14 11:16:26;;;;;;;3.00;2.63;;;15.40;99.90;;;;;;5008845;28;20489;-51
2022/10/14 11:19:01;;;;;;;2.63;2.40;;;15.50;99.90;;;;;;5008780;28;20450;-52
2022/10/14 11:21:35;;;;;;;3.23;2.93;;;15.50;99.90;;;;;;5008031;28;20534;-51
2022/10/14 11:24:10;;;;;;;2.83;2.60;;;15.50;99.90;;;;;;5008596;28;20876;-51
2022/10/14 11:26:48;;;;;;;2.30;1.97;;;15.40;99.90;;;;;;5008788;28;20465;-51
2022/10/14 11:29:35;;;;;;;2.80;2.13;;;15.40;99.90;;;;;;5008795;28;20463;-51
2022/10/14 11:32:10;;;;;;;4.60;2.40;;;15.50;99.90;;;;;;5008701;28;20450;-51
2022/10/14 11:34:43;;;;;;;2.90;2.13;;;15.60;99.90;;;;;;5008330;28;20446;-51
2022/10/14 11:37:23;;;;;;;3.57;2.77;;;15.70;99.90;;;;;;5008668;28;20588;-51
2022/10/14 11:39:57;;;;;;;4.23;2.63;;;15.80;99.90;;;;;;5008569;28;20465;-51
2022/10/14 11:42:31;;;;;;;2.83;2.63;;;15.90;99.90;;;;;;5008602;28;20538;-51
2022/10/14 11:45:11;;;;;;;3.17;2.53;;;15.80;99.90;;;;;;5008245;28;20968;-52
2022/10/14 11:47:40;;;;;;;3.67;2.60;;;15.70;99.90;;;;;;5008604;28;20526;-51
2022/10/14 11:50:15;;;;;;;3.53;2.53;;;15.80;99.90;;;;;;5008327;28;21014;-52
2022/10/14 11:52:49;;;;;;;4.53;2.70;;;15.80;99.90;;;;;;5008367;28;20817;-52
2022/10/14 11:55:22;;;;;;;2.70;2.27;;;15.70;99.90;;;;;;5008046;28;20535;-52
2022/10/14 11:57:52;;;;;;;3.37;2.90;;;15.80;99.90;;;;;;5008469;28;20485;-52
2022/10/14 12:00:20;;;;;;;2.60;2.10;;;15.90;99.90;;;;;;5008167;28;20484;-53
2022/10/14 12:02:52;;;;;;;3.27;2.70;;;15.90;99.90;;;;;;5008488;28;20496;-52
2022/10/14 12:05:23;;;;;;;2.93;2.47;;;15.90;99.90;;;;;;5008204;28;21008;-52
2022/10/14 12:08:02;;;;;;;3.27;2.67;;;15.90;99.90;;;;;;5007912;28;20527;-53
2022/10/14 12:10:36;;;;;;;2.33;1.93;;;15.90;99.90;;;;;;5008009;28;20459;-52
2022/10/14 12:13:06;;;;;;;3.30;2.20;;;15.90;99.90;;;;;;5007993;28;20810;-52
2022/10/14 12:15:35;;;;;;;3.53;2.70;;;15.80;99.90;;;;;;5008216;28;20550;-52
2022/10/14 12:18:04;;;;;;;3.87;2.67;;;15.80;99.90;;;;;;5008205;28;20501;-52
2022/10/14 12:20:37;;;;;;;3.27;2.00;;;15.90;99.90;;;;;;5007584;28;20498;-52
2022/10/14 12:23:08;;;;;;;2.87;2.10;;;15.90;99.90;;;;;;5007839;28;20450;-52
2022/10/14 12:25:45;;;;;;;3.10;2.30;;;15.90;99.90;;;;;;5007950;28;20547;-53
2022/10/14 12:28:13;;;;;;;2.63;2.13;;;16.00;99.90;;;;;;5008525;28;20469;-52
2022/10/14 12:30:42;;;;;;;2.40;2.17;;;16.10;99.90;;;;;;5007728;28;20901;-52
2022/10/14 12:33:10;;;;;;;2.47;2.27;;;16.10;99.90;;;;;;5009642;28;20450;-52
2022/10/14 12:35:58;;;;;;;2.77;2.30;;;16.00;99.90;;;;;;5011317;28;20541;-53
2022/10/14 12:38:25;;;;;;;2.83;2.40;;;16.00;99.90;;;;;;5010942;28;20481;-53
2022/10/14 12:40:53;;;;;;;3.10;1.93;;;16.00;99.90;;;;;;5011350;28;20472;-52
2022/10/14 12:43:25;;;;;;;3.03;2.10;;;16.00;99.90;;;;;;5011110;28;20809;-52
2022/10/14 12:46:01;;;;;;;2.93;2.03;;;15.90;99.90;;;;;;5011025;28;21035;-52
2022/10/14 12:48:32;;;;;;;3.37;2.40;;;15.90;99.90;;;;;;5011006;28;20447;-53
2022/10/14 12:51:10;;;;;;;2.00;1.57;;;15.90;99.90;;;;;;5011162;28;20546;-52
2022/10/14 12:53:39;;;;;;;2.60;2.40;;;15.90;99.90;;;;;;5011272;28;20815;-54
2022/10/14 12:56:07;;;;;;;2.87;2.30;;;15.80;99.90;;;;;;5011013;28;20450;-52
2022/10/14 12:58:39;;;;;;;2.80;2.23;;;15.80;99.90;;;;;;5010925;28;20842;-52
2022/10/14 13:01:15;;;;;;;6.00;2.67;;;15.80;99.90;;;;;;5010921;28;20822;-52
2022/10/14 13:03:45;;;;;;;3.90;2.40;;;15.70;99.90;;;;;;5010582;28;20878;-52
2022/10/14 13:06:42;;;;;;;1.90;1.70;;;15.70;99.90;;;;;;5010647;28;20523;-52